Main page
METAR-TAF:

METAR-TAF

Airports :

Seinäjoki Airport

Seinäjoki-Ilmajoki, Finland

latitude: 62-41-37N, longitude: 022-49-55E, elevation: 91 m

Current weather observation

The report was made 25 minutes ago, at 02:20 UTC
Wind 10 kt from the South/Southeast, varying between East/Southeast and South/Southwest
Temperature 1°C
Humidity 93%
Pressure 995 hPa
Visibility 10 km or more
Few clouds at a height of 900 ft
Scattered clouds at a height of 1400 ft
Broken clouds at a height of 1700 ft
Overcast at a height of 2100 ft
light rain

METAR: EFSI 210220Z AUTO 16010KT 120V200 9999 -RA FEW009 SCT014 BKN017 OVC021 01/00 Q0995

Time: 04:45 (02:45 UTC)


TAF: missing

Weather observations and forecasts of more than 4000 airports (METAR and TAF reports).

The available stations are represented by yellow and red dots on the map.

Hover mouse over dot to see the name of the station.

Then click to see weather observations and forecasts.

To change the map : click on the green buttons with a black cross to zoom in, on the green button with a dash to zoom out, or on the green arrows for adjacent maps.


METAR-TAF: